Time;durP1;ratioP1;P1;durP2;ratioP2;P2;SDS_P1;SDS_P2;PMS_P1;PMS_P2;Temp;Humidity;BMP_temperature;BMP_pressure;BME280_temperature;BME280_humidity;BME280_pressure;Samples;Min_cycle;Max_cycle;Signal;HPM_P1;HPM_P2
2021/05/09 00:00:16;;;;;;;3.97;3.77;;;15.50;87.00;;;;;;5051134;28;20417;-77
2021/05/09 00:02:42;;;;;;;3.47;3.33;;;15.40;86.80;;;;;;5035196;28;20268;-76
2021/05/09 00:05:09;;;;;;;3.53;3.33;;;15.40;87.10;;;;;;5051126;28;20404;-77
2021/05/09 00:07:35;;;;;;;3.97;3.73;;;15.40;86.90;;;;;;5051963;28;20265;-77
2021/05/09 00:10:00;;;;;;;5.50;3.80;;;15.40;86.90;;;;;;5051148;28;20401;-77
2021/05/09 00:12:27;;;;;;;3.70;3.50;;;15.40;86.90;;;;;;5051907;28;20197;-77
2021/05/09 00:14:52;;;;;;;4.47;4.17;;;15.40;86.30;;;;;;5050932;28;20426;-77
2021/05/09 00:17:18;;;;;;;3.73;3.40;;;15.30;86.30;;;;;;5051834;28;20462;-77
2021/05/09 00:19:44;;;;;;;3.80;3.60;;;15.30;86.60;;;;;;5051587;28;20177;-77
2021/05/09 00:22:10;;;;;;;4.60;4.20;;;15.40;86.70;;;;;;5032948;28;20519;-77
2021/05/09 00:24:36;;;;;;;3.60;3.40;;;15.40;86.70;;;;;;5051181;28;20465;-77
2021/05/09 00:27:02;;;;;;;4.00;3.67;;;15.40;86.50;;;;;;5050979;28;20186;-77
2021/05/09 00:29:28;;;;;;;4.00;3.70;;;15.40;86.40;;;;;;5054827;28;20530;-77
2021/05/09 00:31:53;;;;;;;4.50;4.30;;;15.40;86.40;;;;;;5054784;28;20419;-77
2021/05/09 00:34:19;;;;;;;4.20;4.00;;;15.40;86.50;;;;;;5055651;28;20227;-77
2021/05/09 00:36:45;;;;;;;4.10;3.90;;;15.40;86.40;;;;;;5055251;28;20175;-77
2021/05/09 00:39:10;;;;;;;4.30;4.00;;;15.50;86.20;;;;;;5036929;28;20190;-77
2021/05/09 00:41:36;;;;;;;4.90;4.50;;;15.60;86.10;;;;;;5055409;28;20643;-77
2021/05/09 00:44:02;;;;;;;4.30;4.10;;;15.60;85.90;;;;;;5054287;28;20178;-78
2021/05/09 00:46:28;;;;;;;4.07;3.80;;;15.60;85.80;;;;;;5055068;28;20662;-77
2021/05/09 00:48:55;;;;;;;3.97;3.77;;;15.60;85.90;;;;;;5054479;28;20401;-78
2021/05/09 00:51:21;;;;;;;3.87;3.67;;;15.60;85.90;;;;;;5055034;28;20232;-77
2021/05/09 00:53:49;;;;;;;4.10;3.43;;;15.60;85.80;;;;;;5054935;28;20884;-77
2021/05/09 00:56:17;;;;;;;4.50;4.20;;;15.50;85.80;;;;;;5036938;28;20408;-77
2021/05/09 00:58:47;;;;;;;4.40;4.10;;;15.50;86.30;;;;;;5055120;28;20461;-77
2021/05/09 01:01:15;;;;;;;3.90;3.70;;;15.60;86.40;;;;;;5036459;28;20445;-77
2021/05/09 01:03:42;;;;;;;3.53;3.33;;;15.50;86.30;;;;;;5054776;28;20405;-77
2021/05/09 01:06:09;;;;;;;3.97;3.60;;;15.50;86.20;;;;;;5036401;28;20812;-78
2021/05/09 01:08:35;;;;;;;3.80;3.60;;;15.50;86.50;;;;;;5054978;28;20421;-78
2021/05/09 01:11:03;;;;;;;4.10;3.90;;;15.40;87.00;;;;;;5054084;28;20408;-78
2021/05/09 01:13:30;;;;;;;4.20;3.93;;;15.50;87.00;;;;;;5054844;28;20550;-78
2021/05/09 01:15:56;;;;;;;4.50;4.20;;;15.50;86.90;;;;;;5053994;28;20423;-77
2021/05/09 01:18:21;;;;;;;3.90;3.70;;;15.60;87.00;;;;;;5054700;28;20930;-77
2021/05/09 01:20:47;;;;;;;3.80;3.60;;;15.60;87.50;;;;;;5054668;28;20229;-77
2021/05/09 01:23:13;;;;;;;4.00;3.80;;;15.60;88.10;;;;;;5053694;28;20170;-77
2021/05/09 01:25:39;;;;;;;3.87;3.67;;;15.50;87.80;;;;;;5054307;28;20181;-77
2021/05/09 01:28:05;;;;;;;4.10;3.80;;;15.50;87.80;;;;;;5053763;28;20406;-77
2021/05/09 01:30:30;;;;;;;4.13;3.87;;;15.40;88.10;;;;;;5054217;28;20181;-77
2021/05/09 01:32:56;;;;;;;3.63;3.43;;;15.20;88.90;;;;;;5053759;28;20185;-77
2021/05/09 01:35:22;;;;;;;3.50;3.30;;;15.30;89.10;;;;;;5054445;28;20422;-77
2021/05/09 01:37:48;;;;;;;3.57;3.37;;;15.30;89.00;;;;;;5054384;28;20178;-77
2021/05/09 01:40:15;;;;;;;3.43;3.33;;;15.40;89.00;;;;;;5052536;28;20910;-77
2021/05/09 01:42:42;;;;;;;3.80;3.50;;;15.40;89.50;;;;;;5036359;28;20408;-77
2021/05/09 01:45:10;;;;;;;5.83;3.70;;;15.40;89.80;;;;;;5053767;28;20970;-77
2021/05/09 01:47:38;;;;;;;4.17;3.70;;;15.40;90.00;;;;;;5054145;28;20412;-77
2021/05/09 01:50:07;;;;;;;4.30;4.00;;;15.30;90.20;;;;;;5053043;28;20803;-77
2021/05/09 01:52:33;;;;;;;3.40;3.20;;;15.30;90.30;;;;;;5054101;28;20446;-77
2021/05/09 01:54:59;;;;;;;3.70;3.50;;;15.20;90.40;;;;;;5053267;28;20444;-77
2021/05/09 01:57:25;;;;;;;4.50;4.20;;;15.10;90.40;;;;;;5053747;28;20173;-77
2021/05/09 01:59:50;;;;;;;4.27;3.97;;;15.10;90.50;;;;;;5053979;28;20540;-77
2021/05/09 02:02:16;;;;;;;4.53;4.10;;;15.00;90.40;;;;;;5035340;28;20294;-77
2021/05/09 02:04:41;;;;;;;4.53;4.13;;;14.90;90.70;;;;;;5053627;28;20183;-77
2021/05/09 02:07:07;;;;;;;3.80;3.60;;;14.90;90.80;;;;;;5053019;28;20543;-77
2021/05/09 02:09:33;;;;;;;4.00;3.80;;;14.90;91.00;;;;;;5053551;28;20176;-77
2021/05/09 02:11:59;;;;;;;3.90;3.70;;;14.70;91.00;;;;;;5052614;28;20195;-77
2021/05/09 02:14:24;;;;;;;4.77;4.43;;;14.70;91.20;;;;;;5053663;28;20183;-77
2021/05/09 02:16:50;;;;;;;4.43;4.23;;;14.60;91.60;;;;;;5053699;28;20190;-77
2021/05/09 02:19:16;;;;;;;4.20;4.00;;;14.50;91.80;;;;;;5052836;28;20168;-77
2021/05/09 02:21:41;;;;;;;4.67;4.37;;;14.50;92.00;;;;;;5053510;28;20233;-77
2021/05/09 02:24:07;;;;;;;4.67;4.43;;;14.50;92.30;;;;;;5052754;28;20228;-77
2021/05/09 02:26:33;;;;;;;7.50;4.87;;;14.40;92.30;;;;;;5053489;28;20185;-77
2021/05/09 02:28:59;;;;;;;4.40;4.10;;;14.40;92.50;;;;;;5052647;28;20589;-78
2021/05/09 02:31:24;;;;;;;4.67;4.37;;;14.40;92.70;;;;;;5053380;28;20633;-77
2021/05/09 02:33:50;;;;;;;4.93;4.50;;;14.30;92.80;;;;;;5052991;28;20234;-77
2021/05/09 02:36:16;;;;;;;4.20;4.00;;;14.30;92.90;;;;;;5052257;28;20169;-77
2021/05/09 02:38:41;;;;;;;4.10;3.90;;;14.30;93.00;;;;;;5052881;28;20241;-77
2021/05/09 02:41:07;;;;;;;4.00;3.80;;;14.30;93.10;;;;;;5052336;28;20590;-77
2021/05/09 02:43:32;;;;;;;5.17;4.77;;;14.30;93.30;;;;;;5052911;28;20175;-77
2021/05/09 02:45:58;;;;;;;4.53;4.33;;;14.30;93.50;;;;;;5052270;28;20230;-78
2021/05/09 02:48:24;;;;;;;4.63;4.23;;;14.20;93.60;;;;;;5053168;28;20529;-77
2021/05/09 02:50:50;;;;;;;4.10;3.90;;;14.30;93.90;;;;;;5052606;28;20180;-77
2021/05/09 02:53:15;;;;;;;4.50;4.10;;;14.30;94.00;;;;;;5052222;28;20175;-77
2021/05/09 02:55:41;;;;;;;3.77;3.50;;;14.30;94.10;;;;;;5052927;28;20276;-77
2021/05/09 02:58:07;;;;;;;4.00;3.80;;;14.20;94.20;;;;;;5052079;28;20174;-77
2021/05/09 03:00:32;;;;;;;5.13;4.63;;;14.20;94.30;;;;;;5052450;28;20659;-77
2021/05/09 03:02:58;;;;;;;4.20;3.90;;;14.20;94.60;;;;;;5052101;28;20176;-77
2021/05/09 03:05:24;;;;;;;4.60;4.30;;;14.30;94.80;;;;;;5051843;28;20180;-77
2021/05/09 03:07:49;;;;;;;4.07;3.87;;;14.10;94.80;;;;;;5052373;28;20555;-77
2021/05/09 03:10:15;;;;;;;4.70;4.40;;;14.20;94.90;;;;;;5034143;28;20220;-77
2021/05/09 03:12:41;;;;;;;3.70;3.50;;;14.10;95.00;;;;;;5052341;28;20176;-77
2021/05/09 03:15:07;;;;;;;4.50;4.30;;;14.10;95.10;;;;;;5051894;28;20581;-77
2021/05/09 03:17:33;;;;;;;5.07;4.77;;;14.00;95.10;;;;;;5052602;28;20271;-77
2021/05/09 03:20:00;;;;;;;4.10;3.80;;;14.00;95.20;;;;;;5034506;28;20815;-77
2021/05/09 03:22:26;;;;;;;6.00;5.60;;;14.00;95.30;;;;;;5052160;28;20477;-76
2021/05/09 03:24:52;;;;;;;5.53;5.03;;;14.00;95.40;;;;;;5052441;28;20837;-77
2021/05/09 03:27:17;;;;;;;4.83;4.63;;;13.90;95.50;;;;;;5051601;28;20418;-77
2021/05/09 03:29:43;;;;;;;5.23;4.93;;;13.90;95.60;;;;;;5052359;28;20176;-77
2021/05/09 03:32:09;;;;;;;5.17;4.77;;;14.00;96.00;;;;;;5050966;28;20179;-77
2021/05/09 03:34:34;;;;;;;5.60;5.30;;;14.00;96.10;;;;;;5052054;28;20201;-77
2021/05/09 03:37:00;;;;;;;4.60;4.40;;;13.90;96.40;;;;;;5034131;28;20228;-78
2021/05/09 03:39:26;;;;;;;4.93;4.63;;;14.00;96.40;;;;;;5051841;28;20653;-77
2021/05/09 03:41:51;;;;;;;5.73;5.43;;;14.10;96.50;;;;;;5052147;28;20208;-77
2021/05/09 03:44:17;;;;;;;5.00;4.70;;;14.10;96.50;;;;;;5051353;28;20174;-77
2021/05/09 03:46:43;;;;;;;5.10;4.87;;;14.10;96.40;;;;;;5052093;28;20177;-77
2021/05/09 03:49:08;;;;;;;4.80;4.60;;;14.20;96.30;;;;;;5051117;28;20170;-77
2021/05/09 03:51:34;;;;;;;5.60;5.10;;;14.30;96.10;;;;;;5052114;28;20184;-77
2021/05/09 03:54:00;;;;;;;5.20;4.80;;;14.30;96.00;;;;;;5051601;28;20600;-77
2021/05/09 03:56:25;;;;;;;5.03;4.80;;;14.50;95.90;;;;;;5051536;28;20200;-77
2021/05/09 03:58:51;;;;;;;6.60;4.37;;;14.50;95.90;;;;;;5051830;28;20183;-77
2021/05/09 04:01:17;;;;;;;4.80;4.50;;;14.60;96.00;;;;;;5051158;28;20331;-77
2021/05/09 04:03:42;;;;;;;5.00;4.80;;;14.60;95.60;;;;;;5053602;28;20176;-77
2021/05/09 04:06:08;;;;;;;5.10;4.80;;;14.60;95.70;;;;;;5037572;28;20176;-77
2021/05/09 04:08:34;;;;;;;5.70;5.30;;;14.70;95.90;;;;;;5056057;28;20173;-77
2021/05/09 04:11:01;;;;;;;5.10;4.70;;;14.70;95.80;;;;;;5056114;28;20599;-77
2021/05/09 04:13:27;;;;;;;4.87;4.67;;;14.70;95.80;;;;;;5055382;28;20259;-77
2021/05/09 04:15:53;;;;;;;4.67;4.47;;;14.60;95.70;;;;;;5056088;28;20517;-77
2021/05/09 04:18:19;;;;;;;4.57;4.27;;;14.60;95.80;;;;;;5055059;28;20185;-77
2021/05/09 04:20:44;;;;;;;5.40;5.10;;;14.60;95.80;;;;;;5037667;28;20463;-77
2021/05/09 04:23:17;;;;;;;4.87;4.67;;;14.70;95.80;;;;;;5055263;28;20415;-77
2021/05/09 04:25:50;;;;;;;5.00;4.70;;;14.80;95.70;;;;;;5056083;28;20218;-77
2021/05/09 04:28:17;;;;;;;5.20;4.90;;;14.80;95.50;;;;;;5055248;28;20407;-77
2021/05/09 04:30:43;;;;;;;4.60;4.40;;;14.80;95.50;;;;;;5055582;28;20422;-77
2021/05/09 04:33:09;;;;;;;5.20;4.90;;;14.80;95.40;;;;;;5054839;28;20411;-78
2021/05/09 04:35:36;;;;;;;5.80;5.40;;;14.80;95.50;;;;;;5055484;28;20184;-77
2021/05/09 04:38:04;;;;;;;6.20;5.80;;;14.80;95.50;;;;;;5055218;28;20657;-77
2021/05/09 04:40:30;;;;;;;6.10;5.63;;;14.80;95.60;;;;;;5055189;28;20451;-77
2021/05/09 04:43:07;;;;;;;5.80;5.40;;;14.70;95.50;;;;;;5055515;28;20496;-77
2021/05/09 04:45:34;;;;;;;5.37;5.07;;;14.70;95.70;;;;;;5037394;28;20818;-77
2021/05/09 04:48:02;;;;;;;5.67;5.27;;;14.70;95.80;;;;;;5055300;28;20417;-77
2021/05/09 04:50:27;;;;;;;5.27;4.97;;;14.70;95.90;;;;;;5054489;28;20442;-77
2021/05/09 04:52:54;;;;;;;5.60;5.20;;;14.60;96.00;;;;;;5055260;28;20888;-77
2021/05/09 04:55:19;;;;;;;5.10;4.80;;;14.60;96.20;;;;;;5036519;28;20570;-77
2021/05/09 04:57:45;;;;;;;5.60;5.20;;;14.60;96.40;;;;;;5055023;28;20443;-77
2021/05/09 05:00:14;;;;;;;5.07;4.83;;;14.60;96.50;;;;;;5054129;28;20694;-77
2021/05/09 05:02:44;;;;;;;5.80;5.50;;;14.50;96.60;;;;;;5054873;28;20180;-77
2021/05/09 05:05:10;;;;;;;8.27;7.57;;;14.60;96.90;;;;;;5054301;28;20801;-78
2021/05/09 05:07:36;;;;;;;7.00;6.50;;;14.50;97.00;;;;;;5055226;28;20409;-77
2021/05/09 05:10:03;;;;;;;6.60;6.20;;;14.50;97.10;;;;;;5055027;28;20480;-77
2021/05/09 05:12:28;;;;;;;5.77;5.37;;;14.50;97.10;;;;;;5054211;28;20232;-77
2021/05/09 05:14:54;;;;;;;6.70;6.20;;;14.50;97.30;;;;;;5053496;28;20443;-77
2021/05/09 05:17:20;;;;;;;6.27;5.67;;;14.60;97.40;;;;;;5053987;28;20197;-77
2021/05/09 05:19:46;;;;;;;4.93;4.70;;;14.60;97.40;;;;;;5054602;28;20180;-77
2021/05/09 05:22:12;;;;;;;4.90;4.50;;;14.50;97.30;;;;;;5053845;28;20465;-77
2021/05/09 05:24:38;;;;;;;4.10;3.90;;;14.60;96.90;;;;;;5054253;28;20454;-77
2021/05/09 05:27:04;;;;;;;4.50;4.23;;;14.70;96.40;;;;;;5054689;28;20617;-77
2021/05/09 05:29:30;;;;;;;4.67;4.40;;;14.80;96.30;;;;;;5053916;28;20429;-77
2021/05/09 05:31:56;;;;;;;4.80;4.40;;;14.80;96.10;;;;;;5036764;28;20403;-78
2021/05/09 05:34:22;;;;;;;4.07;3.90;;;15.00;96.00;;;;;;5053753;28;20188;-77
2021/05/09 05:36:47;;;;;;;4.57;4.30;;;15.10;95.90;;;;;;5054500;28;20401;-78
2021/05/09 05:39:13;;;;;;;4.47;4.27;;;15.20;95.40;;;;;;5053390;28;20169;-78
2021/05/09 05:41:40;;;;;;;4.40;4.20;;;15.40;95.50;;;;;;5054042;28;20196;-77
2021/05/09 05:44:07;;;;;;;3.90;3.70;;;15.50;95.30;;;;;;5053898;28;20461;-77
2021/05/09 05:46:33;;;;;;;4.37;4.07;;;15.60;94.80;;;;;;5053817;28;20417;-77
2021/05/09 05:48:59;;;;;;;4.40;4.17;;;15.60;94.30;;;;;;5054156;28;20415;-77
2021/05/09 05:51:24;;;;;;;3.80;3.60;;;15.70;94.90;;;;;;5053430;28;20478;-77
2021/05/09 05:53:55;;;;;;;4.10;3.90;;;15.80;94.40;;;;;;5054055;28;20168;-77
2021/05/09 05:56:20;;;;;;;3.80;3.60;;;15.90;94.10;;;;;;5053154;28;20254;-77
2021/05/09 05:58:46;;;;;;;3.60;3.50;;;16.10;93.70;;;;;;5036247;28;20443;-77
2021/05/09 06:01:12;;;;;;;4.00;3.73;;;16.20;93.60;;;;;;5052217;28;20230;-77
2021/05/09 06:03:38;;;;;;;3.67;3.57;;;16.30;93.40;;;;;;5053930;28;20616;-77
2021/05/09 06:06:04;;;;;;;3.87;3.73;;;16.40;92.90;;;;;;5053719;28;20266;-76
2021/05/09 06:08:29;;;;;;;3.70;3.50;;;16.40;92.50;;;;;;5035240;28;20178;-76
2021/05/09 06:10:55;;;;;;;3.90;3.57;;;16.50;92.40;;;;;;5053788;28;20425;-76
2021/05/09 06:13:22;;;;;;;3.70;3.47;;;16.60;92.60;;;;;;5051824;28;20181;-76
2021/05/09 06:15:48;;;;;;;3.23;3.13;;;16.70;92.30;;;;;;5052938;28;20518;-75
2021/05/09 06:18:14;;;;;;;4.37;4.00;;;16.60;91.50;;;;;;5051110;28;20407;-76
2021/05/09 06:20:40;;;;;;;3.80;3.60;;;16.70;91.80;;;;;;5052261;28;20608;-76
2021/05/09 06:23:06;;;;;;;3.97;3.77;;;16.80;91.70;;;;;;5052372;28;20455;-76
2021/05/09 06:25:32;;;;;;;3.10;3.00;;;16.90;91.40;;;;;;5051881;28;20239;-76
2021/05/09 06:27:58;;;;;;;4.00;3.73;;;17.00;91.20;;;;;;5053261;28;20263;-76
2021/05/09 06:30:24;;;;;;;4.40;4.10;;;17.00;90.80;;;;;;5052242;28;20942;-76
2021/05/09 06:32:51;;;;;;;4.37;4.07;;;17.10;90.80;;;;;;5052750;28;20177;-76
2021/05/09 06:35:17;;;;;;;3.97;3.77;;;17.20;91.40;;;;;;5052118;28;20435;-76
2021/05/09 06:37:43;;;;;;;3.30;3.20;;;17.30;90.60;;;;;;5052986;28;20419;-76
2021/05/09 06:40:09;;;;;;;4.07;3.77;;;17.40;90.60;;;;;;5053106;28;20181;-77
2021/05/09 06:42:35;;;;;;;3.60;3.50;;;17.50;90.90;;;;;;5052626;28;20422;-77
2021/05/09 06:45:08;;;;;;;4.03;3.73;;;17.70;90.20;;;;;;5052320;28;20420;-77
2021/05/09 06:47:34;;;;;;;8.17;7.23;;;17.80;90.00;;;;;;5049681;28;20173;-76
2021/05/09 06:50:00;;;;;;;8.40;7.70;;;17.80;89.90;;;;;;5052441;28;20451;-83
2021/05/09 06:52:26;;;;;;;4.00;3.80;;;17.90;89.50;;;;;;5033885;28;20443;-83
2021/05/09 06:54:51;;;;;;;3.73;3.60;;;18.10;89.10;;;;;;5052348;28;20587;-83
2021/05/09 06:57:17;;;;;;;4.00;3.80;;;18.00;88.20;;;;;;5052824;28;20260;-82
2021/05/09 06:59:43;;;;;;;5.93;5.47;;;18.10;89.10;;;;;;5035470;28;20272;-82
2021/05/09 07:02:08;;;;;;;4.00;3.70;;;18.20;88.00;;;;;;5054381;28;20249;-81
2021/05/09 07:04:34;;;;;;;3.70;3.50;;;18.30;88.20;;;;;;5050734;28;20166;-80
2021/05/09 07:07:00;;;;;;;3.80;3.60;;;18.40;88.30;;;;;;5053035;28;20526;-79
2021/05/09 07:09:26;;;;;;;3.50;3.40;;;18.50;86.40;;;;;;5051062;28;20412;-81
2021/05/09 07:11:51;;;;;;;3.73;3.63;;;18.50;87.00;;;;;;5053005;28;20193;-80
2021/05/09 07:14:17;;;;;;;4.03;3.83;;;18.60;86.10;;;;;;5051781;28;20185;-80
2021/05/09 07:16:43;;;;;;;142.60;90.93;;;18.80;85.60;;;;;;5051846;28;20542;-81
2021/05/09 07:19:09;;;;;;;53.47;46.80;;;18.90;86.70;;;;;;5053507;28;20282;-81
2021/05/09 07:21:47;;;;;;;19.67;16.30;;;19.00;84.70;;;;;;5034749;28;20201;-77
2021/05/09 07:24:13;;;;;;;113.60;101.53;;;19.20;84.90;;;;;;5059448;28;20455;-78
2021/05/09 07:26:39;;;;;;;11.13;10.20;;;19.30;85.30;;;;;;5072147;28;20446;-77
2021/05/09 07:29:04;;;;;;;4.37;4.17;;;19.40;83.40;;;;;;5072425;28;20169;-77
2021/05/09 07:31:37;;;;;;;3.90;3.70;;;19.60;84.20;;;;;;5071085;28;20185;-77
2021/05/09 07:34:03;;;;;;;3.80;3.60;;;19.70;83.50;;;;;;5072320;28;20169;-77
2021/05/09 07:36:29;;;;;;;3.27;3.17;;;19.80;80.00;;;;;;5070666;28;20473;-77
2021/05/09 07:38:54;;;;;;;3.73;3.53;;;20.00;81.20;;;;;;5070524;28;20422;-77
2021/05/09 07:41:20;;;;;;;3.97;3.67;;;20.10;82.90;;;;;;5071114;28;20598;-78
2021/05/09 07:43:47;;;;;;;11.17;10.13;;;20.30;83.40;;;;;;5070948;28;20177;-77
2021/05/09 07:46:13;;;;;;;4.83;4.53;;;20.40;80.90;;;;;;5070283;28;20176;-77
2021/05/09 07:48:38;;;;;;;3.57;3.47;;;20.50;80.70;;;;;;5071929;28;20959;-77
2021/05/09 07:51:04;;;;;;;3.80;3.60;;;20.50;79.10;;;;;;5071741;28;20705;-77
2021/05/09 07:53:30;;;;;;;3.77;3.47;;;20.50;80.20;;;;;;5070743;28;20169;-78
2021/05/09 07:55:56;;;;;;;3.50;3.30;;;20.50;78.30;;;;;;5071830;28;20173;-77
2021/05/09 07:58:22;;;;;;;3.80;3.60;;;20.50;80.00;;;;;;5071304;28;20176;-78
2021/05/09 08:00:49;;;;;;;3.70;3.50;;;20.60;80.20;;;;;;5070447;28;20242;-78
2021/05/09 08:03:16;;;;;;;3.63;3.37;;;20.70;78.70;;;;;;5071352;28;20476;-77
2021/05/09 08:05:42;;;;;;;3.67;3.47;;;20.70;78.00;;;;;;5072183;28;20430;-78
2021/05/09 08:08:08;;;;;;;4.27;3.87;;;20.80;78.50;;;;;;5071273;28;20438;-78
2021/05/09 08:10:36;;;;;;;5.83;5.50;;;21.00;79.80;;;;;;5070421;28;20755;-77
2021/05/09 08:13:10;;;;;;;4.93;4.33;;;21.10;78.90;;;;;;5071540;28;20407;-77
2021/05/09 08:15:36;;;;;;;3.93;3.67;;;21.20;77.50;;;;;;5071494;28;20644;-76
2021/05/09 08:18:02;;;;;;;3.70;3.50;;;21.40;76.10;;;;;;5071840;28;20552;-77
2021/05/09 08:20:28;;;;;;;4.03;3.83;;;21.50;77.20;;;;;;5070419;28;20506;-78
2021/05/09 08:22:54;;;;;;;3.87;3.67;;;21.70;77.20;;;;;;5071761;28;20416;-78
2021/05/09 08:25:21;;;;;;;61.17;45.77;;;21.80;75.20;;;;;;5053059;28;20918;-78
2021/05/09 08:27:46;;;;;;;111.57;99.67;;;21.90;75.30;;;;;;5051597;28;20420;-77
2021/05/09 08:30:15;;;;;;;4.20;4.00;;;22.00;75.70;;;;;;5050664;28;20412;-80
2021/05/09 08:32:41;;;;;;;5.90;5.50;;;22.00;73.30;;;;;;5050794;28;20448;-79
2021/05/09 08:35:10;;;;;;;6.00;5.50;;;22.10;73.60;;;;;;5050854;28;20424;-80
2021/05/09 08:37:38;;;;;;;10.70;9.70;;;22.20;75.10;;;;;;5050689;28;20544;-80
2021/05/09 08:40:06;;;;;;;8.83;7.93;;;22.40;76.30;;;;;;5051205;28;20515;-80
2021/05/09 08:42:32;;;;;;;4.30;4.10;;;22.50;74.70;;;;;;5050488;28;20464;-80
2021/05/09 08:44:58;;;;;;;4.73;4.43;;;22.60;73.10;;;;;;5051535;28;20902;-79
2021/05/09 08:47:36;;;;;;;5.00;4.73;;;22.60;72.40;;;;;;5050381;28;20629;-82
2021/05/09 08:50:17;;;;;;;4.37;4.17;;;22.60;72.80;;;;;;5052902;28;20178;-82
2021/05/09 08:52:46;;;;;;;4.33;3.93;;;22.60;73.70;;;;;;5037324;28;20419;-81
2021/05/09 08:55:15;;;;;;;4.20;3.90;;;22.70;71.00;;;;;;5055165;28;20474;-84
2021/05/09 08:57:42;;;;;;;4.50;4.20;;;22.60;71.30;;;;;;5035990;28;20504;-86
2021/05/09 09:00:10;;;;;;;4.07;3.87;;;22.60;70.50;;;;;;5054772;28;20455;-87
2021/05/09 09:02:38;;;;;;;4.77;4.47;;;22.70;72.00;;;;;;5054262;28;21037;-84
2021/05/09 09:05:04;;;;;;;4.47;4.17;;;22.70;72.90;;;;;;5055031;28;20426;-81
2021/05/09 09:07:48;;;;;;;4.30;4.10;;;22.90;71.80;;;;;;5054210;28;20499;-78
2021/05/09 09:10:36;;;;;;;4.37;3.97;;;23.10;73.80;;;;;;5054749;28;20491;-79
2021/05/09 09:13:03;;;;;;;4.17;3.97;;;23.30;69.80;;;;;;5054874;28;20412;-77
2021/05/09 09:15:48;;;;;;;4.20;4.03;;;23.50;70.10;;;;;;5054283;28;20482;-78
2021/05/09 09:18:32;;;;;;;4.80;4.40;;;23.70;72.40;;;;;;5053555;28;21005;-78
2021/05/09 09:21:18;;;;;;;13.33;11.93;;;23.90;71.00;;;;;;5054579;28;20545;-78
2021/05/09 09:23:46;;;;;;;9.00;8.30;;;24.10;70.00;;;;;;5041423;28;20443;-78
2021/05/09 09:26:25;;;;;;;5.83;4.73;;;24.30;70.80;;;;;;5072828;28;20446;-78
2021/05/09 09:28:51;;;;;;;5.03;4.63;;;24.50;74.00;;;;;;5073647;28;20407;-78
2021/05/09 09:31:34;;;;;;;4.40;4.20;;;24.60;69.70;;;;;;5074571;28;20430;-77
2021/05/09 09:34:00;;;;;;;4.33;4.13;;;24.60;68.50;;;;;;5074959;28;20523;-78
2021/05/09 09:36:26;;;;;;;4.47;4.27;;;24.70;69.70;;;;;;5073712;28;20416;-79
2021/05/09 09:38:51;;;;;;;4.10;3.90;;;24.70;68.60;;;;;;5074497;28;20230;-79
2021/05/09 09:41:22;;;;;;;4.83;4.47;;;24.60;67.60;;;;;;5074384;28;20208;-79
2021/05/09 09:44:08;;;;;;;4.50;4.30;;;24.60;69.10;;;;;;5073022;28;20170;-79
2021/05/09 09:46:39;;;;;;;4.50;4.30;;;24.70;68.80;;;;;;5073160;28;20427;-79
2021/05/09 09:49:32;;;;;;;4.80;4.50;;;24.70;68.40;;;;;;5072962;28;20423;-79
2021/05/09 09:52:07;;;;;;;6.70;6.30;;;24.60;67.70;;;;;;5074140;28;20419;-79
2021/05/09 09:54:45;;;;;;;4.33;4.13;;;24.50;68.60;;;;;;5072962;28;20415;-79
2021/05/09 09:57:22;;;;;;;5.00;4.80;;;24.60;68.50;;;;;;5072794;28;20934;-79
2021/05/09 10:00:11;;;;;;;4.43;4.20;;;24.80;67.10;;;;;;5073575;28;20427;-79
2021/05/09 10:02:43;;;;;;;4.20;4.00;;;24.90;69.40;;;;;;5071066;28;20509;-79
2021/05/09 10:05:09;;;;;;;4.30;3.90;;;25.10;67.50;;;;;;5073905;28;20412;-79
2021/05/09 10:07:35;;;;;;;4.30;4.00;;;25.20;66.10;;;;;;5073266;28;20408;-79
2021/05/09 10:10:03;;;;;;;3.77;3.57;;;25.30;65.80;;;;;;5073567;28;20966;-79
2021/05/09 10:12:29;;;;;;;4.20;3.97;;;25.40;66.00;;;;;;5072209;28;20427;-79
2021/05/09 10:14:54;;;;;;;4.60;4.10;;;25.50;65.60;;;;;;5071968;28;20434;-79
2021/05/09 10:17:22;;;;;;;29.97;27.07;;;25.70;65.20;;;;;;5072924;28;20173;-79
2021/05/09 10:19:48;;;;;;;26.70;24.13;;;25.80;65.60;;;;;;5071951;28;20169;-79
2021/05/09 10:22:30;;;;;;;3.87;3.67;;;25.90;64.80;;;;;;5071445;28;20516;-79
2021/05/09 10:24:56;;;;;;;4.17;3.87;;;26.00;63.20;;;;;;5057658;28;20508;-78
2021/05/09 10:27:41;;;;;;;4.37;4.07;;;26.00;64.30;;;;;;5052723;28;20428;-79
2021/05/09 10:30:14;;;;;;;4.40;4.10;;;26.10;62.30;;;;;;5053285;28;20486;-79
2021/05/09 10:32:39;;;;;;;3.90;3.80;;;26.00;62.40;;;;;;5052266;28;20420;-79
2021/05/09 10:35:07;;;;;;;4.60;4.20;;;26.10;61.80;;;;;;5052006;28;20436;-79
2021/05/09 10:40:41;;;;;;;4.03;3.73;;;26.20;61.20;;;;;;5053307;28;20901;-79
2021/05/09 10:43:11;;;;;;;4.40;4.10;;;26.20;60.00;;;;;;4952600;29;20816;-79
2021/05/09 10:45:40;;;;;;;4.40;4.00;;;26.10;60.70;;;;;;4952023;29;20516;-79
2021/05/09 10:51:05;;;;;;;5.27;4.77;;;26.20;60.00;;;;;;5052115;28;20432;-79
2021/05/09 10:53:34;;;;;;;4.13;3.83;;;26.20;61.20;;;;;;5052007;28;20409;-77
2021/05/09 10:56:02;;;;;;;4.00;3.80;;;26.40;61.60;;;;;;5035203;28;20443;-79
2021/05/09 10:58:49;;;;;;;3.83;3.63;;;26.50;60.80;;;;;;5051781;28;20428;-80
2021/05/09 11:01:35;;;;;;;3.87;3.67;;;26.60;60.30;;;;;;5052513;28;20971;-76
2021/05/09 11:04:01;;;;;;;4.60;4.30;;;26.80;59.90;;;;;;5052304;28;20427;-76
2021/05/09 11:06:27;;;;;;;5.03;4.53;;;26.70;59.10;;;;;;5051522;28;20507;-77
2021/05/09 11:09:16;;;;;;;23.37;20.90;;;26.70;59.30;;;;;;5052887;28;20566;-77
2021/05/09 11:11:42;;;;;;;11.93;10.93;;;26.60;58.70;;;;;;5033577;28;20189;-76
2021/05/09 11:14:15;;;;;;;4.77;4.47;;;26.40;58.50;;;;;;5052220;28;20429;-76
2021/05/09 11:16:56;;;;;;;4.17;3.97;;;26.20;58.30;;;;;;5034467;28;20201;-77
2021/05/09 11:19:24;;;;;;;4.30;4.00;;;25.90;58.70;;;;;;5034664;28;20903;-76
2021/05/09 11:21:55;;;;;;;3.97;3.77;;;25.90;59.80;;;;;;5049112;28;20458;-72
2021/05/09 11:24:24;;;;;;;4.67;4.37;;;25.70;59.80;;;;;;5040956;28;20448;-73
2021/05/09 11:27:03;;;;;;;4.13;3.93;;;25.60;59.10;;;;;;5051885;28;20924;-73
2021/05/09 11:29:30;;;;;;;4.30;4.00;;;25.60;59.80;;;;;;5050598;28;21050;-76
2021/05/09 11:32:05;;;;;;;4.30;4.10;;;25.60;60.10;;;;;;5051714;28;20424;-76
2021/05/09 11:34:31;;;;;;;4.50;4.10;;;25.60;60.10;;;;;;5044552;28;20416;-75
2021/05/09 11:36:58;;;;;;;4.50;4.20;;;25.60;60.10;;;;;;5051846;28;20424;-75
2021/05/09 11:39:30;;;;;;;4.30;4.10;;;25.60;61.00;;;;;;5052320;28;20447;-74
2021/05/09 11:42:01;;;;;;;4.20;4.00;;;25.50;60.60;;;;;;5051886;28;20529;-74
2021/05/09 11:44:36;;;;;;;4.23;4.00;;;25.50;59.80;;;;;;5051687;28;20448;-78
2021/05/09 11:47:05;;;;;;;4.27;4.07;;;25.50;60.00;;;;;;5034106;28;20474;-75
2021/05/09 11:49:33;;;;;;;6.20;5.73;;;25.40;59.80;;;;;;5050924;28;20420;-75
2021/05/09 11:52:17;;;;;;;4.83;4.53;;;25.40;60.40;;;;;;5033086;28;20432;-74
2021/05/09 11:54:49;;;;;;;4.30;4.10;;;25.50;60.20;;;;;;5051332;28;20393;-75
2021/05/09 11:57:17;;;;;;;4.40;4.20;;;25.50;59.50;;;;;;5052004;28;20412;-75
2021/05/09 11:59:51;;;;;;;4.80;4.40;;;25.50;59.70;;;;;;5051222;28;20478;-74
2021/05/09 12:02:17;;;;;;;102.77;90.97;;;25.60;59.30;;;;;;5051935;28;20456;-74
2021/05/09 12:04:47;;;;;;;8.90;8.00;;;25.80;60.70;;;;;;5051149;28;20408;-75
2021/05/09 12:07:14;;;;;;;5.07;4.67;;;26.00;59.20;;;;;;5051763;28;20523;-80
2021/05/09 12:09:42;;;;;;;4.53;4.20;;;26.10;58.90;;;;;;5050581;28;20426;-77
2021/05/09 12:12:08;;;;;;;4.20;4.00;;;26.30;58.30;;;;;;5051106;28;20436;-76
2021/05/09 12:14:33;;;;;;;5.03;4.83;;;26.50;57.80;;;;;;5051014;28;20504;-79
2021/05/09 12:16:59;;;;;;;4.53;4.20;;;26.60;57.90;;;;;;5051090;28;20515;-75
2021/05/09 12:19:33;;;;;;;4.40;4.10;;;26.80;57.80;;;;;;5051814;28;20189;-76
2021/05/09 12:22:01;;;;;;;4.43;4.17;;;27.00;57.90;;;;;;5052100;28;20613;-75
2021/05/09 12:24:27;;;;;;;4.10;3.90;;;27.20;57.30;;;;;;5052748;28;20455;-75
2021/05/09 12:27:03;;;;;;;4.73;4.43;;;27.30;55.80;;;;;;5076129;28;20894;-76
2021/05/09 12:29:29;;;;;;;4.10;3.90;;;27.40;56.00;;;;;;5075650;28;20720;-81
2021/05/09 12:32:34;;;;;;;3.87;3.67;;;27.40;54.70;;;;;;5076195;28;20418;-75
2021/05/09 12:35:09;;;;;;;3.90;3.70;;;27.20;53.50;;;;;;5074544;28;20772;-75
2021/05/09 12:37:47;;;;;;;4.30;4.00;;;27.30;54.90;;;;;;5075230;28;20383;-75
2021/05/09 12:40:17;;;;;;;3.90;3.70;;;27.30;54.00;;;;;;5075960;28;20407;-75
2021/05/09 12:43:00;;;;;;;4.03;3.83;;;27.30;53.80;;;;;;5075152;28;20455;-75
2021/05/09 12:45:44;;;;;;;4.57;4.27;;;27.20;52.70;;;;;;5076013;28;20429;-75
2021/05/09 12:48:14;;;;;;;4.37;4.17;;;27.30;53.80;;;;;;5074581;28;20396;-78
2021/05/09 12:51:19;;;;;;;3.90;3.70;;;27.30;54.50;;;;;;5075209;28;20426;-78
2021/05/09 12:53:51;;;;;;;3.83;3.63;;;27.40;53.70;;;;;;5012939;28;20468;-75
2021/05/09 12:56:21;;;;;;;4.10;3.80;;;27.50;54.70;;;;;;5013435;28;20425;-75